createdAt,value
2023-01-07T00:00:41.064Z,36.10
2023-01-07T00:03:46.686Z,23.53
2023-01-07T00:06:52.698Z,23.15
2023-01-07T00:09:58.202Z,25.98
2023-01-07T00:13:03.003Z,25.80
2023-01-07T00:16:13.092Z,20.25
2023-01-07T00:19:17.743Z,27.70
2023-01-07T00:22:22.067Z,36.03
2023-01-07T00:25:26.483Z,28.63
2023-01-07T00:28:32.921Z,30.13
2023-01-07T00:31:40.089Z,20.73
2023-01-07T00:34:44.701Z,26.55
2023-01-07T00:37:53.593Z,19.88
2023-01-07T00:40:58.124Z,18.55
2023-01-07T00:44:03.115Z,29.02
2023-01-07T00:50:11.891Z,20.60
2023-01-07T00:53:16.334Z,17.90
2023-01-07T00:56:20.755Z,19.05
2023-01-07T00:59:26.138Z,21.73
2023-01-07T01:02:30.550Z,25.70
2023-01-07T01:05:34.994Z,22.88
2023-01-07T01:08:44.513Z,24.23
2023-01-07T01:11:48.985Z,29.10
2023-01-07T01:14:53.908Z,22.70
2023-01-07T01:17:58.307Z,26.85
2023-01-07T01:21:07.326Z,26.50
2023-01-07T01:24:13.015Z,31.42
2023-01-07T01:27:17.720Z,23.90
2023-01-07T01:30:21.641Z,20.73
2023-01-07T01:33:26.693Z,21.60
2023-01-07T01:36:31.448Z,22.45
2023-01-07T01:39:37.372Z,21.80
2023-01-07T01:42:42.849Z,24.52
2023-01-07T01:45:51.212Z,24.10
2023-01-07T01:49:03.234Z,17.57
2023-01-07T01:52:13.679Z,23.48
2023-01-07T01:55:22.014Z,20.00
2023-01-07T01:58:36.197Z,21.92
2023-01-07T02:01:41.708Z,22.40
2023-01-07T02:04:50.343Z,23.52
2023-01-07T02:07:54.515Z,19.52
2023-01-07T02:11:26.670Z,23.33
2023-01-07T02:14:49.691Z,28.25
2023-01-07T02:18:32.123Z,25.15
2023-01-07T02:21:48.750Z,23.67
2023-01-07T02:25:34.443Z,23.98
2023-01-07T02:28:48.130Z,25.02
2023-01-07T02:32:13.678Z,21.30
2023-01-07T02:35:55.792Z,18.25
2023-01-07T02:39:15.638Z,28.48
2023-01-07T02:42:53.253Z,26.98
2023-01-07T02:46:13.142Z,36.20
2023-01-07T02:49:18.676Z,19.05
2023-01-07T02:52:29.226Z,18.15
2023-01-07T02:55:48.559Z,27.17
2023-01-07T02:59:05.291Z,24.10
2023-01-07T03:02:24.037Z,24.05
2023-01-07T03:05:44.026Z,33.30
2023-01-07T03:09:11.829Z,19.48
2023-01-07T03:12:21.523Z,30.38
2023-01-07T03:15:46.847Z,21.20
2023-01-07T03:19:23.727Z,29.67
2023-01-07T03:22:30.959Z,18.40
2023-01-07T03:25:40.378Z,31.33
2023-01-07T03:28:45.674Z,30.58
2023-01-07T03:32:17.772Z,23.00
2023-01-07T03:35:24.894Z,25.77
2023-01-07T03:38:30.618Z,35.15
2023-01-07T03:41:58.053Z,31.52
2023-01-07T03:45:02.846Z,32.63
2023-01-07T03:48:09.482Z,27.60
2023-01-07T03:51:15.757Z,28.30
2023-01-07T03:54:23.353Z,22.35
2023-01-07T03:57:29.168Z,21.88
2023-01-07T04:00:34.198Z,21.85
2023-01-07T04:03:47.961Z,28.55
2023-01-07T04:06:52.191Z,25.27
2023-01-07T04:09:56.726Z,23.33
2023-01-07T04:13:01.093Z,27.05
2023-01-07T04:16:05.965Z,32.28
2023-01-07T04:22:15.396Z,21.38
2023-01-07T04:25:20.380Z,26.92
2023-01-07T04:31:30.180Z,17.63
2023-01-07T04:34:34.916Z,35.63
2023-01-07T04:37:40.257Z,30.15
2023-01-07T04:40:45.073Z,24.63
2023-01-07T04:43:50.116Z,25.65
2023-01-07T04:46:54.567Z,16.63
2023-01-07T04:49:58.728Z,31.85
2023-01-07T04:53:05.839Z,22.65
2023-01-07T04:56:10.799Z,34.25
2023-01-07T04:59:16.247Z,21.92
2023-01-07T05:02:21.282Z,31.55
2023-01-07T05:05:26.405Z,28.20
2023-01-07T05:11:36.065Z,22.40
2023-01-07T05:14:41.442Z,19.67
2023-01-07T05:17:46.614Z,38.75
2023-01-07T05:20:51.061Z,27.13
2023-01-07T05:23:56.528Z,14.05
2023-01-07T05:27:00.788Z,14.37
2023-01-07T05:30:06.292Z,18.77
2023-01-07T05:33:11.080Z,23.63
2023-01-07T05:36:15.356Z,40.03
2023-01-07T05:39:20.951Z,19.00
2023-01-07T05:42:25.926Z,23.33
2023-01-07T05:48:35.391Z,21.50
2023-01-07T05:51:39.915Z,19.38
2023-01-07T05:54:44.020Z,20.42
2023-01-07T05:57:48.400Z,28.77
2023-01-07T06:00:53.395Z,32.58
2023-01-07T06:03:58.119Z,29.20
2023-01-07T06:07:02.203Z,14.30
2023-01-07T06:10:06.820Z,29.07
2023-01-07T06:13:11.444Z,30.58
2023-01-07T06:16:16.193Z,28.05
2023-01-07T06:22:27.219Z,23.55
2023-01-07T06:25:31.694Z,24.10
2023-01-07T06:28:36.051Z,24.27
2023-01-07T06:31:40.609Z,24.25
2023-01-07T06:34:46.092Z,21.13
2023-01-07T06:37:50.543Z,24.63
2023-01-07T06:40:55.032Z,20.10
2023-01-07T06:43:59.410Z,14.63
2023-01-07T06:47:03.844Z,25.95
2023-01-07T06:50:08.850Z,14.48
2023-01-07T06:53:13.554Z,28.05
2023-01-07T06:56:18.192Z,19.48
2023-01-07T06:59:22.660Z,16.60
2023-01-07T07:02:28.618Z,38.47
2023-01-07T07:05:34.104Z,27.27
2023-01-07T07:11:42.111Z,23.90
2023-01-07T07:14:46.512Z,31.60
2023-01-07T07:17:50.882Z,18.23
2023-01-07T07:20:55.286Z,27.33
2023-01-07T07:24:00.571Z,36.30
2023-01-07T07:27:05.078Z,28.13
2023-01-07T07:30:10.130Z,24.92
2023-01-07T07:33:15.070Z,25.30
2023-01-07T07:36:19.337Z,25.77
2023-01-07T07:39:23.800Z,38.70
2023-01-07T07:42:28.373Z,31.20
2023-01-07T07:45:32.891Z,26.42
2023-01-07T07:48:37.233Z,41.80
2023-01-07T07:51:41.880Z,15.60
2023-01-07T07:54:46.298Z,27.92
2023-01-07T07:57:56.713Z,23.93
2023-01-07T08:01:01.297Z,42.90
2023-01-07T08:04:05.816Z,27.08
2023-01-07T08:07:14.299Z,27.48
2023-01-07T08:10:37.751Z,27.00
2023-01-07T08:13:42.196Z,29.90
2023-01-07T08:16:46.852Z,31.65
2023-01-07T08:19:51.785Z,30.77
2023-01-07T08:23:02.133Z,36.93
2023-01-07T08:26:06.861Z,30.75
2023-01-07T08:29:11.355Z,29.00
2023-01-07T08:32:15.610Z,26.23
2023-01-07T08:35:21.181Z,17.13
2023-01-07T08:38:27.368Z,28.70
2023-01-07T08:41:31.842Z,30.38
2023-01-07T08:44:35.917Z,28.15
2023-01-07T08:47:40.169Z,25.23
2023-01-07T08:50:48.773Z,33.72
2023-01-07T08:53:53.004Z,37.67
2023-01-07T08:56:57.632Z,41.03
2023-01-07T09:00:02.161Z,25.15
2023-01-07T09:03:06.752Z,24.63
2023-01-07T09:06:11.225Z,27.95
2023-01-07T09:09:16.598Z,29.40
2023-01-07T09:12:21.347Z,35.70
2023-01-07T09:15:26.058Z,21.17
2023-01-07T09:18:30.210Z,24.35
2023-01-07T09:21:34.719Z,22.17
2023-01-07T09:24:38.884Z,16.50
2023-01-07T09:27:43.369Z,23.98
2023-01-07T09:30:47.677Z,26.70
2023-01-07T09:33:52.191Z,22.38
2023-01-07T09:36:56.685Z,17.58
2023-01-07T09:40:01.249Z,21.40
2023-01-07T09:43:17.803Z,20.48
2023-01-07T09:46:22.815Z,19.42
2023-01-07T09:49:32.435Z,26.08
2023-01-07T09:52:41.933Z,19.70
2023-01-07T09:56:11.497Z,22.52
2023-01-07T09:59:15.163Z,23.73
2023-01-07T10:02:30.471Z,16.80
2023-01-07T10:05:57.075Z,19.90
2023-01-07T10:09:07.558Z,18.15
2023-01-07T10:12:25.547Z,25.92
2023-01-07T10:15:44.656Z,31.63
2023-01-07T10:19:07.582Z,25.55
2023-01-07T10:22:32.469Z,30.67
2023-01-07T10:25:45.662Z,27.05
2023-01-07T10:29:10.754Z,29.83
2023-01-07T10:32:17.682Z,35.10
2023-01-07T10:35:24.046Z,23.77
2023-01-07T10:38:32.178Z,32.42
2023-01-07T10:41:49.254Z,38.72
2023-01-07T10:45:30.534Z,36.88
2023-01-07T10:49:09.153Z,30.48
2023-01-07T10:52:38.032Z,31.40
2023-01-07T10:56:05.348Z,31.20
2023-01-07T10:59:15.864Z,39.13
2023-01-07T11:02:28.012Z,35.85
2023-01-07T11:05:38.603Z,29.50
2023-01-07T11:08:43.556Z,38.45
2023-01-07T11:11:49.422Z,32.20
2023-01-07T11:14:56.985Z,37.10
2023-01-07T11:18:03.193Z,31.75
2023-01-07T11:21:07.557Z,33.80
2023-01-07T11:24:27.096Z,26.30
2023-01-07T11:27:35.191Z,39.15
2023-01-07T11:30:39.470Z,37.55
2023-01-07T11:34:02.273Z,35.25
2023-01-07T11:37:11.341Z,47.03
2023-01-07T11:40:15.330Z,38.78
2023-01-07T11:43:24.368Z,37.08
2023-01-07T11:46:31.571Z,49.97
2023-01-07T11:49:43.692Z,40.15
2023-01-07T11:53:01.295Z,45.60
2023-01-07T11:56:11.162Z,39.05
2023-01-07T11:59:30.037Z,41.08
2023-01-07T12:02:34.642Z,40.00
2023-01-07T12:05:41.711Z,41.20
2023-01-07T12:09:04.867Z,35.75
2023-01-07T12:12:39.445Z,33.88
2023-01-07T12:15:59.726Z,35.95
2023-01-07T12:19:19.266Z,34.10
2023-01-07T12:22:45.136Z,35.58
2023-01-07T12:29:19.659Z,23.25
2023-01-07T12:32:52.555Z,23.08
2023-01-07T12:36:03.734Z,24.50
2023-01-07T12:39:30.669Z,21.23
2023-01-07T12:42:39.790Z,17.13
2023-01-07T12:46:01.776Z,15.52
2023-01-07T12:49:34.782Z,18.70
2023-01-07T12:53:13.722Z,21.10
2023-01-07T12:56:46.200Z,19.45
2023-01-07T13:00:02.822Z,13.60
2023-01-07T13:03:37.531Z,14.50
2023-01-07T13:06:48.276Z,14.48
2023-01-07T13:10:02.617Z,15.73
2023-01-07T13:13:16.208Z,15.45
2023-01-07T13:16:20.546Z,12.73
2023-01-07T13:19:25.413Z,11.27
2023-01-07T13:22:41.869Z,10.25
2023-01-07T13:26:08.192Z,11.23
2023-01-07T13:29:34.129Z,8.93
2023-01-07T13:32:50.558Z,8.90
2023-01-07T13:36:00.837Z,9.07
2023-01-07T13:39:27.350Z,11.35
2023-01-07T13:43:02.855Z,6.57
2023-01-07T13:46:15.050Z,5.97
2023-01-07T13:49:58.984Z,4.68
2023-01-07T13:53:07.732Z,16.27
2023-01-07T13:56:18.171Z,4.35
2023-01-07T13:59:31.620Z,5.05
2023-01-07T14:02:57.278Z,3.20
2023-01-07T14:09:35.596Z,2.90
2023-01-07T14:12:58.230Z,3.88
2023-01-07T14:16:11.677Z,4.85
2023-01-07T14:19:38.058Z,5.60
2023-01-07T14:26:25.524Z,2.55
2023-01-07T14:29:52.566Z,2.78
2023-01-07T14:33:05.596Z,1.38
2023-01-07T14:36:11.871Z,1.50
2023-01-07T14:39:33.734Z,2.15
2023-01-07T14:42:43.021Z,1.48
2023-01-07T14:45:47.459Z,1.90
2023-01-07T14:49:04.003Z,2.35
2023-01-07T14:52:42.240Z,2.90
2023-01-07T14:56:29.467Z,3.67
2023-01-07T14:59:52.213Z,4.50
2023-01-07T15:03:40.799Z,3.58
2023-01-07T15:06:46.208Z,3.40
2023-01-07T15:10:40.624Z,6.30
2023-01-07T15:14:17.311Z,6.88
2023-01-07T15:17:21.819Z,7.15
2023-01-07T15:20:39.356Z,3.28
2023-01-07T15:23:59.441Z,6.93
2023-01-07T15:27:21.578Z,3.85
2023-01-07T15:30:47.386Z,5.63
2023-01-07T15:33:54.151Z,6.82
2023-01-07T15:36:59.012Z,5.78
2023-01-07T15:40:03.762Z,7.57
2023-01-07T15:43:23.382Z,5.43
2023-01-07T15:46:28.786Z,8.18
2023-01-07T15:49:34.980Z,9.73
2023-01-07T15:53:32.744Z,9.52
2023-01-07T15:56:37.689Z,11.38
2023-01-07T15:59:45.713Z,12.45
2023-01-07T16:02:50.162Z,13.80
2023-01-07T16:05:56.114Z,15.38
2023-01-07T16:09:16.430Z,19.20
2023-01-07T16:12:29.310Z,22.75
2023-01-07T16:15:38.140Z,24.58
2023-01-07T16:18:54.614Z,36.95
2023-01-07T16:22:01.008Z,33.25
2023-01-07T16:25:11.688Z,41.03
2023-01-07T16:28:23.977Z,43.25
2023-01-07T16:31:29.953Z,46.20
2023-01-07T16:34:34.466Z,56.53
2023-01-07T16:37:40.344Z,51.38
2023-01-07T16:40:46.492Z,59.42
2023-01-07T16:43:56.288Z,65.63
2023-01-07T16:47:17.797Z,53.85
2023-01-07T16:50:22.076Z,49.58
2023-01-07T16:53:35.079Z,48.95
2023-01-07T16:56:39.525Z,53.08
2023-01-07T16:59:49.442Z,45.42
2023-01-07T17:02:56.949Z,45.38
2023-01-07T17:06:08.248Z,51.78
2023-01-07T17:09:25.558Z,47.47
2023-01-07T17:12:39.096Z,50.28
2023-01-07T17:15:43.957Z,42.70
2023-01-07T17:18:48.820Z,46.20
2023-01-07T17:21:54.484Z,45.50
2023-01-07T17:25:03.976Z,49.92
2023-01-07T17:28:09.671Z,40.55
2023-01-07T17:31:14.125Z,43.33
2023-01-07T17:34:18.734Z,38.95
2023-01-07T17:37:23.123Z,33.47
2023-01-07T17:40:27.568Z,40.15
2023-01-07T17:43:34.896Z,42.28
2023-01-07T17:46:40.100Z,37.97
2023-01-07T17:49:44.159Z,36.22
2023-01-07T17:52:54.681Z,39.63
2023-01-07T17:56:02.997Z,40.58
2023-01-07T17:59:14.150Z,38.80
2023-01-07T18:02:19.675Z,30.33
2023-01-07T18:05:25.976Z,34.42
2023-01-07T18:08:30.357Z,33.88
2023-01-07T18:11:59.628Z,32.00
2023-01-07T18:15:04.429Z,32.92
2023-01-07T18:18:09.094Z,30.67
2023-01-07T18:21:13.645Z,36.15
2023-01-07T18:24:20.320Z,29.08
2023-01-07T18:27:25.092Z,27.50
2023-01-07T18:30:30.066Z,31.63
2023-01-07T18:33:35.487Z,23.95
2023-01-07T18:36:40.349Z,24.05
2023-01-07T18:39:44.854Z,23.88
2023-01-07T18:42:49.437Z,28.45
2023-01-07T18:45:54.397Z,26.05
2023-01-07T18:48:59.920Z,21.98
2023-01-07T18:52:04.202Z,26.42
2023-01-07T18:55:10.543Z,28.08
2023-01-07T18:58:16.305Z,21.35
2023-01-07T19:01:21.577Z,25.75
2023-01-07T19:04:29.224Z,24.70
2023-01-07T19:07:35.256Z,26.05
2023-01-07T19:10:44.691Z,31.17
2023-01-07T19:13:49.342Z,32.63
2023-01-07T19:16:54.608Z,30.92
2023-01-07T19:19:59.262Z,30.83
2023-01-07T19:23:03.746Z,24.00
2023-01-07T19:26:09.347Z,26.75
2023-01-07T19:29:14.185Z,42.80
2023-01-07T19:32:18.915Z,36.13
2023-01-07T19:35:23.473Z,32.58
2023-01-07T19:38:28.015Z,35.25
2023-01-07T19:41:33.990Z,36.40
2023-01-07T19:44:38.553Z,34.25
2023-01-07T19:47:43.883Z,24.98
2023-01-07T19:50:59.614Z,29.00
2023-01-07T19:57:08.699Z,25.33
2023-01-07T20:00:13.590Z,27.48
2023-01-07T20:03:17.777Z,13.65
2023-01-07T20:06:25.812Z,15.80
2023-01-07T20:09:30.728Z,19.45
2023-01-07T20:12:35.354Z,19.45
2023-01-07T20:15:39.654Z,20.27
2023-01-07T20:18:48.670Z,17.05
2023-01-07T20:21:53.157Z,17.23
2023-01-07T20:24:57.583Z,16.80
2023-01-07T20:28:02.142Z,14.10
2023-01-07T20:31:08.627Z,18.60
2023-01-07T20:34:13.553Z,17.17
2023-01-07T20:37:18.448Z,16.35
2023-01-07T20:40:22.806Z,13.07
2023-01-07T20:43:26.879Z,13.43
2023-01-07T20:46:32.076Z,13.73
2023-01-07T20:49:36.637Z,9.32
2023-01-07T20:52:41.355Z,7.15
2023-01-07T20:55:45.584Z,13.27
2023-01-07T20:58:50.794Z,14.63
2023-01-07T21:01:55.679Z,12.38
2023-01-07T21:05:00.531Z,8.15
2023-01-07T21:08:05.470Z,8.88
2023-01-07T21:11:15.492Z,7.65
2023-01-07T21:14:20.133Z,11.43
2023-01-07T21:17:24.763Z,13.30
2023-01-07T21:20:29.060Z,10.38
2023-01-07T21:23:34.659Z,13.13
2023-01-07T21:26:39.179Z,16.75
2023-01-07T21:29:43.722Z,9.57
2023-01-07T21:32:48.417Z,11.25
2023-01-07T21:35:52.753Z,12.00
2023-01-07T21:38:58.783Z,13.68
2023-01-07T21:42:03.322Z,10.13
2023-01-07T21:45:08.415Z,11.07
2023-01-07T21:48:12.876Z,10.55
2023-01-07T21:51:22.941Z,13.98
2023-01-07T21:54:27.587Z,13.02
2023-01-07T21:57:33.830Z,11.48
2023-01-07T22:00:38.462Z,11.25
2023-01-07T22:03:49.924Z,9.02
2023-01-07T22:06:54.207Z,11.65
2023-01-07T22:09:58.624Z,13.05
2023-01-07T22:13:03.122Z,8.00
2023-01-07T22:16:08.179Z,9.65
2023-01-07T22:19:13.300Z,11.88
2023-01-07T22:22:20.636Z,10.27
2023-01-07T22:25:25.688Z,9.27
2023-01-07T22:28:32.589Z,9.43
2023-01-07T22:31:37.942Z,17.85
2023-01-07T22:34:42.481Z,7.45
2023-01-07T22:37:47.407Z,12.93
2023-01-07T22:40:51.794Z,10.48
2023-01-07T22:43:59.401Z,10.20
2023-01-07T22:47:07.362Z,13.27
2023-01-07T22:50:14.456Z,8.52
2023-01-07T22:53:19.536Z,10.70
2023-01-07T22:59:28.687Z,7.90
2023-01-07T23:02:33.077Z,6.90
2023-01-07T23:05:39.694Z,6.68
2023-01-07T23:08:44.663Z,10.70
2023-01-07T23:11:49.300Z,5.80
2023-01-07T23:17:58.722Z,9.27
2023-01-07T23:21:04.982Z,4.10
2023-01-07T23:24:10.748Z,7.55
2023-01-07T23:27:15.255Z,9.27
2023-01-07T23:30:19.711Z,9.02
2023-01-07T23:33:24.361Z,7.93
2023-01-07T23:36:28.888Z,6.22
2023-01-07T23:39:33.473Z,5.28
2023-01-07T23:42:38.298Z,5.88
2023-01-07T23:48:47.807Z,4.45
2023-01-07T23:51:52.568Z,5.78
2023-01-07T23:54:57.152Z,6.70
2023-01-07T23:58:01.343Z,5.38
